createdAt,value
2019-04-13T00:01:17.323Z,44.51
2019-04-13T00:06:36.582Z,44.80
2019-04-13T00:11:58.037Z,44.75
2019-04-13T00:17:01.935Z,44.75
2019-04-13T00:22:05.767Z,44.34
2019-04-13T00:27:09.683Z,44.74
2019-04-13T00:32:13.482Z,45.05
2019-04-13T00:37:17.324Z,45.10
2019-04-13T00:42:21.107Z,44.94
2019-04-13T00:47:24.914Z,45.29
2019-04-13T00:52:28.756Z,45.44
2019-04-13T00:57:32.633Z,45.08
2019-04-13T01:02:36.494Z,44.81
2019-04-13T01:07:40.277Z,45.01
2019-04-13T01:12:44.051Z,44.94
2019-04-13T01:17:47.981Z,45.13
2019-04-13T01:22:51.898Z,45.13
2019-04-13T01:27:55.679Z,45.08
2019-04-13T01:32:59.480Z,45.08
2019-04-13T01:38:03.257Z,45.26
2019-04-13T01:43:07.089Z,44.52
2019-04-13T01:48:10.854Z,45.17
2019-04-13T01:53:14.630Z,45.30
2019-04-13T01:58:18.537Z,45.21
2019-04-13T02:03:23.166Z,45.21
2019-04-13T02:08:41.538Z,45.10
2019-04-13T02:13:45.329Z,44.91
2019-04-13T02:18:49.098Z,45.04
2019-04-13T02:23:52.899Z,45.77
2019-04-13T02:28:56.672Z,45.38
2019-04-13T02:34:00.435Z,45.28
2019-04-13T02:39:05.674Z,45.38
2019-04-13T02:44:09.448Z,45.82
2019-04-13T02:49:13.268Z,45.82
2019-04-13T02:54:17.073Z,46.14
2019-04-13T02:59:20.922Z,46.14
2019-04-13T03:04:24.717Z,45.58
2019-04-13T03:09:28.590Z,46.18
2019-04-13T03:14:32.389Z,45.47
2019-04-13T03:19:39.757Z,45.65
2019-04-13T03:24:43.534Z,45.41
2019-04-13T03:29:47.307Z,45.30
2019-04-13T03:34:51.079Z,45.30
2019-04-13T03:39:54.852Z,45.67
2019-04-13T03:44:58.726Z,45.63
2019-04-13T03:50:02.841Z,45.92
2019-04-13T03:55:06.874Z,46.07
2019-04-13T04:00:10.694Z,45.47
2019-04-13T04:05:14.740Z,46.20
2019-04-13T04:10:18.542Z,46.20
2019-04-13T04:15:22.496Z,46.31
2019-04-13T04:20:26.297Z,46.31
2019-04-13T04:25:30.066Z,46.13
2019-04-13T04:30:33.828Z,46.13
2019-04-13T04:35:37.627Z,46.32
2019-04-13T04:40:41.464Z,46.52
2019-04-13T04:45:45.270Z,46.31
2019-04-13T04:50:49.134Z,46.60
2019-04-13T04:55:52.915Z,46.60
2019-04-13T05:00:56.683Z,46.87
2019-04-13T05:06:00.534Z,46.82
2019-04-13T05:11:04.334Z,47.47
2019-04-13T05:16:08.194Z,47.27
2019-04-13T05:21:12.181Z,47.55
2019-04-13T05:26:15.972Z,47.55
2019-04-13T05:31:24.494Z,47.24
2019-04-13T05:36:28.426Z,47.31
2019-04-13T05:41:32.227Z,47.39
2019-04-13T05:46:36.113Z,47.54
2019-04-13T05:51:40.005Z,47.54
2019-04-13T05:56:43.808Z,47.78
2019-04-13T06:01:47.653Z,47.20
2019-04-13T06:06:59.805Z,47.29
2019-04-13T06:11:57.206Z,47.37
2019-04-13T06:17:01.027Z,46.80
2019-04-13T06:22:04.837Z,46.80
2019-04-13T06:27:11.155Z,47.04
2019-04-13T06:32:34.273Z,47.30
2019-04-13T06:37:39.834Z,47.36
2019-04-13T06:42:43.848Z,47.36
2019-04-13T06:47:47.718Z,47.12
2019-04-13T06:52:51.646Z,46.99
2019-04-13T06:57:55.566Z,47.78
2019-04-13T07:02:59.359Z,40.17
2019-04-13T07:08:13.099Z,36.11
2019-04-13T07:13:24.717Z,36.11
2019-04-13T07:18:28.566Z,34.91
2019-04-13T07:23:33.894Z,33.88
2019-04-13T07:28:37.987Z,34.76
2019-04-13T07:33:41.824Z,35.15
2019-04-13T07:38:47.623Z,35.37
2019-04-13T07:43:51.283Z,35.54
2019-04-13T07:49:03.544Z,35.54
2019-04-13T07:54:07.606Z,36.59
2019-04-13T07:59:11.519Z,37.05
2019-04-13T08:04:15.400Z,37.05
2019-04-13T08:09:19.248Z,37.60
2019-04-13T08:14:31.111Z,36.47
2019-04-13T08:19:41.956Z,37.76
2019-04-13T08:24:48.369Z,38.54
2019-04-13T08:29:51.365Z,38.54
2019-04-13T08:34:57.515Z,39.30
2019-04-13T08:40:02.561Z,39.30
2019-04-13T08:45:12.360Z,39.46
2019-04-13T08:50:13.516Z,40.20
2019-04-13T08:55:17.440Z,40.20
2019-04-13T09:00:21.263Z,40.55
2019-04-13T09:05:27.466Z,40.77
2019-04-13T09:10:31.758Z,40.77
2019-04-13T09:15:37.153Z,41.34
2019-04-13T09:20:52.620Z,41.09
2019-04-13T09:25:59.381Z,41.64
2019-04-13T09:31:03.636Z,41.67
2019-04-13T09:36:09.047Z,41.98
2019-04-13T09:41:12.853Z,41.77
2019-04-13T09:46:16.656Z,42.06
2019-04-13T09:51:20.434Z,42.23
2019-04-13T09:56:36.466Z,42.46
2019-04-13T10:01:31.160Z,42.18
2019-04-13T10:07:41.423Z,42.18
2019-04-13T10:12:59.908Z,42.68
2019-04-13T10:18:08.648Z,42.87
2019-04-13T10:23:12.421Z,44.21
2019-04-13T10:28:16.817Z,44.74
2019-04-13T10:33:21.398Z,44.74
2019-04-13T10:38:25.236Z,45.36
2019-04-13T10:43:29.106Z,45.12
2019-04-13T10:48:58.391Z,43.93
2019-04-13T10:54:00.342Z,43.93
2019-04-13T10:59:04.129Z,44.44
2019-04-13T11:04:07.906Z,44.44
2019-04-13T11:09:21.248Z,43.87
2019-04-13T11:14:18.932Z,43.54
2019-04-13T11:19:22.776Z,43.78
2019-04-13T11:24:26.609Z,43.74
2019-04-13T11:29:30.383Z,43.22
2019-04-13T11:34:35.077Z,43.09
2019-04-13T11:39:41.355Z,42.62
2019-04-13T11:45:06.496Z,41.34
2019-04-13T11:50:15.974Z,42.57
2019-04-13T11:55:19.782Z,42.51
2019-04-13T12:00:41.248Z,42.51
2019-04-13T12:05:47.036Z,42.64
2019-04-13T12:11:08.682Z,42.73
2019-04-13T12:16:46.566Z,42.60
2019-04-13T12:21:55.130Z,42.60
2019-04-13T12:26:59.182Z,43.06
2019-04-13T12:32:04.584Z,43.06
2019-04-13T12:37:09.327Z,43.11
2019-04-13T12:42:13.460Z,43.24
2019-04-13T12:47:19.393Z,43.43
2019-04-13T12:52:23.373Z,43.07
2019-04-13T12:57:30.176Z,43.25
2019-04-13T13:02:40.332Z,42.89
2019-04-13T13:07:44.343Z,42.89
2019-04-13T13:12:48.184Z,43.36
2019-04-13T13:17:54.460Z,43.01
2019-04-13T13:22:57.570Z,42.95
2019-04-13T13:28:01.399Z,42.55
2019-04-13T13:33:05.178Z,42.55
2019-04-13T13:38:08.998Z,41.36
2019-04-13T13:43:14.111Z,41.36
2019-04-13T13:48:18.499Z,41.49
2019-04-13T13:53:22.314Z,41.54
2019-04-13T13:58:33.144Z,41.54
2019-04-13T14:03:37.018Z,41.41
2019-04-13T14:08:44.226Z,41.36
2019-04-13T14:13:46.592Z,41.38
2019-04-13T14:18:50.353Z,41.02
2019-04-13T14:23:54.119Z,41.72
2019-04-13T14:28:57.970Z,40.95
2019-04-13T14:34:01.854Z,41.05
2019-04-13T14:39:07.252Z,41.55
2019-04-13T14:44:11.077Z,40.76
2019-04-13T14:49:14.883Z,41.22
2019-04-13T14:54:19.588Z,41.31
2019-04-13T14:59:24.203Z,41.31
2019-04-13T15:04:33.944Z,41.38
2019-04-13T15:09:37.917Z,40.98
2019-04-13T15:14:43.108Z,40.98
2019-04-13T15:19:59.837Z,41.17
2019-04-13T15:24:55.118Z,41.05
2019-04-13T15:29:58.730Z,41.05
2019-04-13T15:35:07.133Z,40.75
2019-04-13T15:40:22.428Z,40.81
2019-04-13T15:45:13.950Z,40.79
2019-04-13T15:50:19.407Z,39.40
2019-04-13T15:55:23.484Z,39.40
2019-04-13T16:00:27.498Z,39.48
2019-04-13T16:05:31.552Z,38.52
2019-04-13T16:10:43.927Z,38.52
2019-04-13T16:15:48.061Z,39.31
2019-04-13T16:20:53.001Z,40.02
2019-04-13T16:25:57.295Z,40.20
2019-04-13T16:31:23.196Z,40.20
2019-04-13T16:36:31.504Z,40.30
2019-04-13T16:41:35.909Z,40.30
2019-04-13T16:46:49.312Z,40.66
2019-04-13T16:52:07.064Z,40.66
2019-04-13T16:57:48.743Z,41.23
2019-04-13T17:03:01.097Z,40.47
2019-04-13T17:08:05.595Z,40.47
2019-04-13T17:13:09.716Z,41.25
2019-04-13T17:18:20.677Z,41.52
2019-04-13T17:23:46.842Z,41.16
2019-04-13T17:29:00.244Z,42.03
2019-04-13T17:34:17.006Z,42.11
2019-04-13T17:39:20.995Z,42.13
2019-04-13T17:44:31.138Z,42.60
2019-04-13T17:50:01.346Z,42.44
2019-04-13T17:55:14.942Z,42.20
2019-04-13T18:00:50.317Z,42.20
2019-04-13T18:06:03.098Z,41.23
2019-04-13T18:11:34.104Z,41.30
2019-04-13T18:17:12.271Z,41.30
2019-04-13T18:22:16.405Z,41.68
2019-04-13T18:27:21.568Z,41.85
2019-04-13T18:32:25.873Z,42.06
2019-04-13T18:37:30.768Z,42.06
2019-04-13T18:42:34.798Z,41.95
2019-04-13T18:47:39.291Z,41.95
2019-04-13T18:52:44.311Z,41.87
2019-04-13T18:57:48.381Z,41.38
2019-04-13T19:02:52.372Z,41.92
2019-04-13T19:07:56.282Z,41.23
2019-04-13T19:13:04.193Z,41.23
2019-04-13T19:18:06.089Z,42.15
2019-04-13T19:23:10.068Z,42.15
2019-04-13T19:28:14.110Z,42.31
2019-04-13T19:33:18.094Z,42.33
2019-04-13T19:38:21.951Z,42.33
2019-04-13T19:43:25.827Z,42.67
2019-04-13T19:48:29.605Z,43.12
2019-04-13T19:53:43.516Z,43.12
2019-04-13T19:58:47.421Z,43.06
2019-04-13T20:03:52.827Z,43.41
2019-04-13T20:08:56.603Z,44.08
2019-04-13T20:14:05.648Z,43.29
2019-04-13T20:19:05.988Z,43.29
2019-04-13T20:24:09.744Z,43.59
2019-04-13T20:29:14.213Z,43.42
2019-04-13T20:34:18.446Z,43.42
2019-04-13T20:39:24.424Z,43.69
2019-04-13T20:44:28.402Z,43.97
2019-04-13T20:49:32.441Z,43.97
2019-04-13T20:54:36.354Z,43.96
2019-04-13T20:59:41.074Z,43.87
2019-04-13T21:04:46.451Z,43.75
2019-04-13T21:09:50.223Z,44.04
2019-04-13T21:14:55.191Z,44.04
2019-04-13T21:19:59.370Z,43.97
2019-04-13T21:25:03.534Z,43.90
2019-04-13T21:30:10.365Z,44.09
2019-04-13T21:35:14.345Z,44.33
2019-04-13T21:40:18.787Z,44.39
2019-04-13T21:45:23.247Z,44.39
2019-04-13T21:50:54.853Z,44.78
2019-04-13T21:55:59.197Z,45.08
2019-04-13T22:01:16.995Z,44.61
2019-04-13T22:06:21.299Z,44.56
2019-04-13T22:11:25.826Z,44.69
2019-04-13T22:16:29.799Z,44.69
2019-04-13T22:21:33.624Z,44.85
2019-04-13T22:26:37.455Z,45.34
2019-04-13T22:31:59.133Z,44.78
2019-04-13T22:37:03.865Z,44.78
2019-04-13T22:42:07.930Z,45.02
2019-04-13T22:47:12.534Z,44.90
2019-04-13T22:52:41.140Z,45.01
2019-04-13T22:57:46.031Z,45.27
2019-04-13T23:02:51.954Z,45.34
2019-04-13T23:07:56.748Z,45.24
2019-04-13T23:13:01.514Z,45.45
2019-04-13T23:18:05.945Z,45.75
2019-04-13T23:23:09.848Z,45.78
2019-04-13T23:28:13.998Z,45.80
2019-04-13T23:33:18.985Z,45.80
2019-04-13T23:38:23.035Z,45.49
2019-04-13T23:43:27.914Z,45.62
2019-04-13T23:48:32.911Z,45.04
2019-04-13T23:53:37.958Z,45.04
2019-04-13T23:58:47.450Z,45.74
